Aeroporto :
LOGIN :

Iscrizione | Disclaimer

   EN    FR    IT 

 










Sommario :    VFR   VFR Marginale   IFR   IFR Intensivo   IFR Molto Intensivo
Visibilità : 
Base nubi : 
>= 8 km
>= 3000ft
5 / 8 km
1000 / 3000 ft
1500m / 5 km
500 / 1000 ft
800 / 1500m
200 / 500 ft
< 800m
< 200 ft
Simboli :   Temporali  Nebbia  Neve Forte  Precipitazioni Forti  Vento > 20 kt
SIGMETs :   Varie  Temporali  Ghiacco  Turbolenza  Onda orograficha  Ceneri Vulcaniche






- Altitudine del aeroporto : 340 ft
- Codice IATA : BZI


LTBF - Balikesir

ULTIMO METAR :
  • 270650Z 02016KT 8000 -SHRA FEW012 SCT035 BKN100 13/12 Q1014 TEMPO -TSRA

METARs OBSOLETI :
  • 270550Z 03015KT 9999 -SHRA FEW011 SCT035 BKN100 14/12 Q1014 TEMPO -TSRA
  • 270450Z 02010KT 9999 -SHRA FEW011 SCT035 BKN100 13/12 Q1014 RESHRA TEMPO FM0600 -TSRA

TAF TAF LTBF
Valido dal 27 a 06 ore il 27 a 15 ore UTC


270440Z 2706/2715 01010KT 9999 -SHRA FEW012 SCT035 BKN100
TEMPO 2706/2709 -TSRA FEW025CB BKN035
PROB30
TEMPO 2712/2715 -TSRA SCT025CB SCT035



MetMap, La meteo Aeronautica in un colpo d'occhio ! - Copyright ORBIFLY Dicembre 2007 - Disclaimer

ORBIFLY MET'MAP TEAM :

Programmazione e sviluppo : Alexandra Zaïnal
Concezione : Baudouin d'Aumeries
Aiuto per la programmazione : Marc-Olivier Méhu
Supporto tecnico e logistico : Manuel Goepfert
Aiuto per la traduzione : Arnaldo La Scala

Contatto : metmap@orbifly.com




FONTI E CREDITI :

   NOAA